Terminal Aerodrome Forecast
Issued by NWS Upton, NY

Home | Current Version | Previous Version | Text Only | Print | Product List | Glossary On
Versions: 1 2 3 4 5 6 7 8 9 10 11 12 13 14 15 16 17 18 19 20 21 22 23 24 25 26 27 28
000
FTUS41 KOKX 262036 AAA
TAFBDR
TAF AMD
KBDR 262036Z 2621/2718 07010KT P6SM OVC035
     FM270000 07010KT P6SM BKN020
      TEMPO 2701/2703 6SM BR BKN015
     FM270300 07011KT 4SM BR OVC015
     FM270700 07010KT 2SM -RA BR OVC008
     FM271000 07009KT 1SM -RA BR OVC004
     FM271600 12008KT 2SM -RA BR OVC004=

USA.gov is the U.S. government's official web portal to all federal, state and local government web resources and services.